createdAt,value
2019-01-30T00:00:41.413Z,0.36
2019-01-30T00:01:41.335Z,0.33
2019-01-30T00:02:41.112Z,0.33
2019-01-30T00:03:41.094Z,0.32
2019-01-30T00:04:41.263Z,0.32
2019-01-30T00:05:41.190Z,0.26
2019-01-30T00:06:41.252Z,0.29
2019-01-30T00:07:41.142Z,0.29
2019-01-30T00:08:41.157Z,0.27
2019-01-30T00:09:41.178Z,0.26
2019-01-30T00:10:41.249Z,0.26
2019-01-30T00:11:41.171Z,0.27
2019-01-30T00:12:41.404Z,0.29
2019-01-30T00:13:41.601Z,0.25
2019-01-30T00:14:41.247Z,0.25
2019-01-30T00:15:41.119Z,0.27
2019-01-30T00:16:41.263Z,0.27
2019-01-30T00:17:41.465Z,0.29
2019-01-30T00:18:41.064Z,0.29
2019-01-30T00:19:41.065Z,0.29
2019-01-30T00:20:41.549Z,0.33
2019-01-30T00:21:41.045Z,0.3
2019-01-30T00:22:41.307Z,0.33
2019-01-30T00:23:41.152Z,0.32
2019-01-30T00:24:41.156Z,0.32
2019-01-30T00:25:41.183Z,0.3
2019-01-30T00:26:41.065Z,0.26
2019-01-30T00:27:41.092Z,0.3
2019-01-30T00:28:41.130Z,0.32
2019-01-30T00:29:41.048Z,0.32
2019-01-30T00:30:41.144Z,0.33
2019-01-30T00:31:41.135Z,0.3
2019-01-30T00:32:41.148Z,0.34
2019-01-30T00:33:41.465Z,0.3
2019-01-30T00:34:41.218Z,0.29
2019-01-30T00:35:41.195Z,0.27
2019-01-30T00:36:41.196Z,0.27
2019-01-30T00:37:41.244Z,0.26
2019-01-30T00:38:42.881Z,0.29
2019-01-30T00:39:41.563Z,0.27
2019-01-30T00:40:41.618Z,0.27
2019-01-30T00:41:41.035Z,0.32
2019-01-30T00:42:41.187Z,0.3
2019-01-30T00:43:41.293Z,0.27
2019-01-30T00:44:41.565Z,0.33
2019-01-30T00:45:41.423Z,0.27
2019-01-30T00:46:41.033Z,0.25
2019-01-30T00:47:41.346Z,0.26
2019-01-30T00:48:41.442Z,0.27
2019-01-30T00:49:41.341Z,0.29
2019-01-30T00:50:42.854Z,0.27
2019-01-30T00:51:42.026Z,0.25
2019-01-30T00:52:41.693Z,0.23
2019-01-30T00:53:41.144Z,0.25
2019-01-30T00:54:42.856Z,0.25
2019-01-30T00:55:41.309Z,0.23
2019-01-30T00:56:41.594Z,0.2
2019-01-30T00:57:41.282Z,0.19
2019-01-30T00:58:41.060Z,0.22
2019-01-30T00:59:41.525Z,0.2
2019-01-30T01:00:41.762Z,0.2
2019-01-30T01:01:41.154Z,0.16
2019-01-30T01:02:41.015Z,0.19
2019-01-30T01:03:40.993Z,0.19
2019-01-30T01:04:41.563Z,0.19
2019-01-30T01:05:41.049Z,0.16
2019-01-30T01:06:41.243Z,0.15
2019-01-30T01:07:41.379Z,0.13
2019-01-30T01:08:41.268Z,0.1
2019-01-30T01:09:41.043Z,0.1
2019-01-30T01:10:41.292Z,0.09
2019-01-30T01:11:41.291Z,0.08
2019-01-30T01:12:41.077Z,0.09
2019-01-30T01:13:41.007Z,0.05
2019-01-30T01:14:41.314Z,0.05
2019-01-30T01:15:41.106Z,0.05
2019-01-30T01:16:41.440Z,0.02
2019-01-30T01:17:41.027Z,0.05
2019-01-30T01:18:41.237Z,0.05
2019-01-30T01:19:41.051Z,0.05
2019-01-30T01:20:41.472Z,0.02
2019-01-30T01:21:41.780Z,0.03
2019-01-30T01:22:41.027Z,0.02
2019-01-30T01:23:41.090Z,0.03
2019-01-30T01:24:41.493Z,0.09
2019-01-30T01:25:41.288Z,0.06
2019-01-30T01:26:41.169Z,0.05
2019-01-30T01:27:41.002Z,0.03
2019-01-30T01:28:41.299Z,0.06
2019-01-30T01:29:41.434Z,0.06
2019-01-30T01:30:41.085Z,0.1
2019-01-30T01:31:41.004Z,0.09
2019-01-30T01:32:41.272Z,0.12
2019-01-30T01:33:41.250Z,0.1
2019-01-30T01:34:41.142Z,0.13
2019-01-30T01:35:40.988Z,0.1
2019-01-30T01:36:41.126Z,0.1
2019-01-30T01:37:41.004Z,0.16
2019-01-30T01:38:41.039Z,0.1
2019-01-30T01:39:40.973Z,0.12
2019-01-30T01:40:41.270Z,0.12
2019-01-30T01:41:41.291Z,0.12
2019-01-30T01:42:41.080Z,0.09
2019-01-30T01:43:41.190Z,0.08
2019-01-30T01:44:41.201Z,0.06
2019-01-30T01:45:41.010Z,0.12
2019-01-30T01:46:41.218Z,0.09
2019-01-30T01:47:41.438Z,0.13
2019-01-30T01:48:41.237Z,0.1
2019-01-30T01:49:40.964Z,0.08
2019-01-30T01:50:41.097Z,0.08
2019-01-30T01:51:41.572Z,0.08
2019-01-30T01:52:41.157Z,0.1
2019-01-30T01:53:40.988Z,0.09
2019-01-30T01:54:41.304Z,0.15
2019-01-30T01:55:40.928Z,0.1
2019-01-30T01:56:41.038Z,0.08
2019-01-30T01:57:40.970Z,0.1
2019-01-30T01:58:41.847Z,0.12
2019-01-30T01:59:41.034Z,0.13
2019-01-30T02:00:41.036Z,0.15
2019-01-30T02:01:41.043Z,0.15
2019-01-30T02:02:41.085Z,0.18
2019-01-30T02:03:41.067Z,0.2
2019-01-30T02:04:41.440Z,0.19
2019-01-30T02:05:41.071Z,0.18
2019-01-30T02:06:41.161Z,0.18
2019-01-30T02:07:41.002Z,0.16
2019-01-30T02:08:41.174Z,0.16
2019-01-30T02:09:41.095Z,0.19
2019-01-30T02:10:40.956Z,0.16
2019-01-30T02:11:41.612Z,0.15
2019-01-30T02:12:41.018Z,0.15
2019-01-30T02:13:40.981Z,0.15
2019-01-30T02:14:40.984Z,0.15
2019-01-30T02:15:41.455Z,0.12
2019-01-30T02:16:40.972Z,0.13
2019-01-30T02:17:41.023Z,0.16
2019-01-30T02:18:40.879Z,0.18
2019-01-30T02:19:41.002Z,0.15
2019-01-30T02:20:41.148Z,0.13
2019-01-30T02:21:41.051Z,0.15
2019-01-30T02:22:41.177Z,0.16
2019-01-30T02:23:40.998Z,0.16
2019-01-30T02:24:41.065Z,0.19
2019-01-30T02:25:40.971Z,0.19
2019-01-30T02:26:41.299Z,0.19
2019-01-30T02:27:40.880Z,0.19
2019-01-30T02:28:41.417Z,0.19
2019-01-30T02:29:40.857Z,0.18
2019-01-30T02:30:47.974Z,0.18
2019-01-30T02:31:41.777Z,0.19
2019-01-30T02:32:41.143Z,0.23
2019-01-30T02:33:41.459Z,0.23
2019-01-30T02:34:41.744Z,0.23
2019-01-30T02:35:40.896Z,0.22
2019-01-30T02:36:41.069Z,0.22
2019-01-30T02:37:41.043Z,0.22
2019-01-30T02:38:41.170Z,0.23
2019-01-30T02:39:42.661Z,0.22
2019-01-30T02:40:41.196Z,0.22
2019-01-30T02:41:40.863Z,0.22
2019-01-30T02:42:41.318Z,0.25
2019-01-30T02:43:40.959Z,0.26
2019-01-30T02:44:41.046Z,0.23
2019-01-30T02:45:41.134Z,0.2
2019-01-30T02:46:40.999Z,0.19
2019-01-30T02:47:40.913Z,0.23
2019-01-30T02:48:41.131Z,0.23
2019-01-30T02:49:41.396Z,0.22
2019-01-30T02:50:41.014Z,0.23
2019-01-30T02:51:40.865Z,0.2
2019-01-30T02:52:40.991Z,0.22
2019-01-30T02:53:40.947Z,0.23
2019-01-30T02:54:40.851Z,0.23
2019-01-30T02:55:42.650Z,0.27
2019-01-30T02:56:41.207Z,0.25
2019-01-30T02:57:41.131Z,0.26
2019-01-30T02:58:40.892Z,0.26
2019-01-30T02:59:41.217Z,0.25
2019-01-30T03:00:41.112Z,0.23
2019-01-30T03:01:40.841Z,0.25
2019-01-30T03:02:41.258Z,0.26
2019-01-30T03:03:41.031Z,0.29
2019-01-30T03:04:41.146Z,0.29
2019-01-30T03:05:40.938Z,0.27
2019-01-30T03:06:40.817Z,0.27
2019-01-30T03:07:41.072Z,0.29
2019-01-30T03:08:41.304Z,0.27
2019-01-30T03:09:41.522Z,0.26
2019-01-30T03:10:41.117Z,0.26
2019-01-30T03:11:41.115Z,0.27
2019-01-30T03:12:41.326Z,0.3
2019-01-30T03:13:41.020Z,0.3
2019-01-30T03:14:40.891Z,0.32
2019-01-30T03:15:40.833Z,0.32
2019-01-30T03:16:40.937Z,0.3
2019-01-30T03:17:41.323Z,0.36
2019-01-30T03:18:40.964Z,0.33
2019-01-30T03:19:40.791Z,0.32
2019-01-30T03:20:40.770Z,0.34
2019-01-30T03:21:41.206Z,0.34
2019-01-30T03:22:41.338Z,0.33
2019-01-30T03:23:41.212Z,0.33
2019-01-30T03:24:41.185Z,0.32
2019-01-30T03:25:41.418Z,0.32
2019-01-30T03:26:41.095Z,0.34
2019-01-30T03:27:41.652Z,0.33
2019-01-30T03:28:41.217Z,0.33
2019-01-30T03:29:40.959Z,0.32
2019-01-30T03:30:40.766Z,0.33
2019-01-30T03:31:40.823Z,0.33
2019-01-30T03:32:40.766Z,0.32
2019-01-30T03:33:40.802Z,0.36
2019-01-30T03:34:41.157Z,0.34
2019-01-30T03:35:40.846Z,0.38
2019-01-30T03:36:41.064Z,0.37
2019-01-30T03:37:41.031Z,0.37
2019-01-30T03:38:40.945Z,0.4
2019-01-30T03:39:40.800Z,0.4
2019-01-30T03:40:41.212Z,0.43
2019-01-30T03:41:40.834Z,0.43
2019-01-30T03:42:40.919Z,0.41
2019-01-30T03:43:40.851Z,0.4
2019-01-30T03:44:41.027Z,0.4
2019-01-30T03:45:40.817Z,0.41
2019-01-30T03:46:40.837Z,0.4
2019-01-30T03:47:40.765Z,0.38
2019-01-30T03:48:40.741Z,0.43
2019-01-30T03:49:41.054Z,0.41
2019-01-30T03:50:40.910Z,0.41
2019-01-30T03:51:40.758Z,0.43
2019-01-30T03:52:40.732Z,0.41
2019-01-30T03:53:40.808Z,0.4
2019-01-30T03:54:40.768Z,0.4
2019-01-30T03:55:40.833Z,0.38
2019-01-30T03:56:40.829Z,0.38
2019-01-30T03:57:40.915Z,0.41
2019-01-30T03:58:41.241Z,0.37
2019-01-30T03:59:41.137Z,0.37
2019-01-30T04:00:41.034Z,0.37
2019-01-30T04:01:40.783Z,0.36
2019-01-30T04:02:40.878Z,0.37
2019-01-30T04:03:41.050Z,0.4
2019-01-30T04:04:41.319Z,0.4
2019-01-30T04:05:41.080Z,0.4
2019-01-30T04:06:41.060Z,0.37
2019-01-30T04:07:40.829Z,0.4
2019-01-30T04:08:40.725Z,0.4
2019-01-30T04:09:41.013Z,0.38
2019-01-30T04:10:41.003Z,0.4
2019-01-30T04:11:41.108Z,0.41
2019-01-30T04:12:40.723Z,0.41
2019-01-30T04:13:40.708Z,0.41
2019-01-30T04:14:40.740Z,0.37
2019-01-30T04:15:41.038Z,0.38
2019-01-30T04:16:41.446Z,0.4
2019-01-30T04:17:41.085Z,0.41
2019-01-30T04:18:40.838Z,0.38
2019-01-30T04:19:41.264Z,0.41
2019-01-30T04:20:40.808Z,0.41
2019-01-30T04:21:40.787Z,0.4
2019-01-30T04:22:40.976Z,0.4
2019-01-30T04:23:40.736Z,0.41
2019-01-30T04:24:40.987Z,0.4
2019-01-30T04:25:41.139Z,0.4
2019-01-30T04:26:40.835Z,0.4
2019-01-30T04:27:40.779Z,0.4
2019-01-30T04:28:41.114Z,0.4
2019-01-30T04:29:40.903Z,0.41
2019-01-30T04:30:40.812Z,0.4
2019-01-30T04:31:40.842Z,0.4
2019-01-30T04:32:41.052Z,0.4
2019-01-30T04:33:40.792Z,0.41
2019-01-30T04:34:41.213Z,0.38
2019-01-30T04:35:40.652Z,0.43
2019-01-30T04:36:40.817Z,0.44
2019-01-30T04:37:40.819Z,0.43
2019-01-30T04:38:40.668Z,0.46
2019-01-30T04:39:40.714Z,0.43
2019-01-30T04:40:40.912Z,0.43
2019-01-30T04:41:40.732Z,0.43
2019-01-30T04:42:41.113Z,0.43
2019-01-30T04:43:40.816Z,0.41
2019-01-30T04:44:40.690Z,0.44
2019-01-30T04:45:40.885Z,0.43
2019-01-30T04:46:41.039Z,0.41
2019-01-30T04:47:40.825Z,0.43
2019-01-30T04:48:40.675Z,0.44
2019-01-30T04:49:40.667Z,0.44
2019-01-30T04:50:40.897Z,0.44
2019-01-30T04:51:41.082Z,0.44
2019-01-30T04:52:40.664Z,0.46
2019-01-30T04:53:40.882Z,0.43
2019-01-30T04:54:41.103Z,0.46
2019-01-30T04:55:40.617Z,0.47
2019-01-30T04:56:40.622Z,0.5
2019-01-30T04:57:40.913Z,0.48
2019-01-30T04:58:40.847Z,0.5
2019-01-30T04:59:40.792Z,0.5
2019-01-30T05:00:41.658Z,0.51
2019-01-30T05:01:50.209Z,0.48
2019-01-30T05:02:40.999Z,0.5
2019-01-30T05:03:40.695Z,0.51
2019-01-30T05:04:40.800Z,0.5
2019-01-30T05:05:40.866Z,0.48
2019-01-30T05:06:40.684Z,0.48
2019-01-30T05:07:40.791Z,0.51
2019-01-30T05:08:40.760Z,0.48
2019-01-30T05:09:40.736Z,0.5
2019-01-30T05:10:40.783Z,0.47
2019-01-30T05:11:41.127Z,0.47
2019-01-30T05:12:40.643Z,0.44
2019-01-30T05:13:40.650Z,0.46
2019-01-30T05:14:40.609Z,0.44
2019-01-30T05:15:40.716Z,0.44
2019-01-30T05:16:40.661Z,0.43
2019-01-30T05:17:40.615Z,0.41
2019-01-30T05:18:40.690Z,0.4
2019-01-30T05:19:40.783Z,0.4
2019-01-30T05:20:40.626Z,0.4
2019-01-30T05:21:40.883Z,0.41
2019-01-30T05:22:41.110Z,0.4
2019-01-30T05:23:40.621Z,0.41
2019-01-30T05:24:40.684Z,0.4
2019-01-30T05:25:40.926Z,0.41
2019-01-30T05:26:40.804Z,0.4
2019-01-30T05:27:41.086Z,0.41
2019-01-30T05:28:40.633Z,0.41
2019-01-30T05:29:40.696Z,0.41
2019-01-30T05:30:41.470Z,0.41
2019-01-30T05:31:40.662Z,0.41
2019-01-30T05:32:40.557Z,0.43
2019-01-30T05:33:41.275Z,0.43
2019-01-30T05:34:40.625Z,0.43
2019-01-30T05:35:40.609Z,0.43
2019-01-30T05:36:40.647Z,0.43
2019-01-30T05:37:40.899Z,0.48
2019-01-30T05:38:40.775Z,0.53
2019-01-30T05:39:40.749Z,0.55
2019-01-30T05:40:41.215Z,0.55
2019-01-30T05:41:41.768Z,0.55
2019-01-30T05:42:41.728Z,0.55
2019-01-30T05:43:44.608Z,0.54
2019-01-30T05:44:40.957Z,0.53
2019-01-30T05:45:41.987Z,0.51
2019-01-30T05:46:40.914Z,0.5
2019-01-30T05:47:42.083Z,0.48
2019-01-30T05:48:40.821Z,0.5
2019-01-30T05:49:42.605Z,0.5
2019-01-30T05:50:40.598Z,0.51
2019-01-30T05:51:40.699Z,0.48
2019-01-30T05:52:40.592Z,0.46
2019-01-30T05:53:41.203Z,0.46
2019-01-30T05:54:41.089Z,0.47
2019-01-30T05:55:40.656Z,0.46
2019-01-30T05:56:40.652Z,0.44
2019-01-30T05:57:40.603Z,0.44
2019-01-30T05:58:40.704Z,0.41
2019-01-30T05:59:40.657Z,0.41
2019-01-30T06:00:40.975Z,0.44
2019-01-30T06:01:40.727Z,0.41
2019-01-30T06:02:40.579Z,0.41
2019-01-30T06:03:40.670Z,0.43
2019-01-30T06:04:40.564Z,0.43
2019-01-30T06:05:41.083Z,0.43
2019-01-30T06:06:40.874Z,0.43
2019-01-30T06:07:40.608Z,0.43
2019-01-30T06:08:40.860Z,0.46
2019-01-30T06:09:40.682Z,0.47
2019-01-30T06:10:40.822Z,0.48
2019-01-30T06:11:40.573Z,0.46
2019-01-30T06:12:41.630Z,0.46
2019-01-30T06:13:40.808Z,0.48
2019-01-30T06:14:40.681Z,0.46
2019-01-30T06:15:40.490Z,0.51
2019-01-30T06:16:40.519Z,0.51
2019-01-30T06:17:42.357Z,0.55
2019-01-30T06:18:40.759Z,0.55
2019-01-30T06:19:40.497Z,0.55
2019-01-30T06:20:40.647Z,0.57
2019-01-30T06:21:40.561Z,0.63
2019-01-30T06:22:41.206Z,0.63
2019-01-30T06:23:40.601Z,0.61
2019-01-30T06:24:41.011Z,0.65
2019-01-30T06:25:40.540Z,0.64
2019-01-30T06:26:40.552Z,0.63
2019-01-30T06:27:40.907Z,0.65
2019-01-30T06:28:41.180Z,0.67
2019-01-30T06:29:41.149Z,0.64
2019-01-30T06:30:40.494Z,0.63
2019-01-30T06:31:40.710Z,0.63
2019-01-30T06:32:40.737Z,0.64
2019-01-30T06:33:40.616Z,0.6
2019-01-30T06:34:40.548Z,0.61
2019-01-30T06:35:40.768Z,0.63
2019-01-30T06:36:40.551Z,0.63
2019-01-30T06:37:41.081Z,0.6
2019-01-30T06:38:40.911Z,0.61
2019-01-30T06:39:40.798Z,0.6
2019-01-30T06:40:40.974Z,0.61
2019-01-30T06:41:42.311Z,0.64
2019-01-30T06:42:40.714Z,0.61
2019-01-30T06:43:40.817Z,0.6
2019-01-30T06:44:40.573Z,0.6
2019-01-30T06:45:42.322Z,0.58
2019-01-30T06:46:41.171Z,0.6
2019-01-30T06:47:40.741Z,0.6
2019-01-30T06:48:40.565Z,0.58
2019-01-30T06:49:40.519Z,0.55
2019-01-30T06:50:43.952Z,0.6
2019-01-30T06:51:40.489Z,0.6
2019-01-30T06:52:40.556Z,0.55
2019-01-30T06:53:40.478Z,0.54
2019-01-30T06:54:41.304Z,0.57
2019-01-30T06:55:40.503Z,0.53
2019-01-30T06:56:40.455Z,0.53
2019-01-30T06:57:40.548Z,0.51
2019-01-30T06:58:40.738Z,0.54
2019-01-30T06:59:40.452Z,0.53
2019-01-30T07:00:40.456Z,0.54
2019-01-30T07:01:40.490Z,0.55
2019-01-30T07:02:41.064Z,0.54
2019-01-30T07:03:40.658Z,0.55
2019-01-30T07:04:40.505Z,0.55
2019-01-30T07:05:40.470Z,0.54
2019-01-30T07:06:40.774Z,0.57
2019-01-30T07:07:40.450Z,0.54
2019-01-30T07:08:40.838Z,0.5
2019-01-30T07:09:40.488Z,0.55
2019-01-30T07:10:40.466Z,0.53
2019-01-30T07:11:40.520Z,0.48
2019-01-30T07:12:40.540Z,0.47
2019-01-30T07:13:40.562Z,0.44
2019-01-30T07:14:40.495Z,0.46
2019-01-30T07:15:40.731Z,0.47
2019-01-30T07:16:40.415Z,0.47
2019-01-30T07:17:41.255Z,0.48
2019-01-30T07:18:40.467Z,0.48
2019-01-30T07:19:40.450Z,0.48
2019-01-30T07:20:40.469Z,0.51
2019-01-30T07:21:40.788Z,0.51
2019-01-30T07:22:40.472Z,0.53
2019-01-30T07:23:40.395Z,0.57
2019-01-30T07:24:41.009Z,0.54
2019-01-30T07:25:40.931Z,0.53
2019-01-30T07:26:40.546Z,0.55
2019-01-30T07:27:40.629Z,0.55
2019-01-30T07:28:40.428Z,0.57
2019-01-30T07:29:40.496Z,0.57
2019-01-30T07:30:40.479Z,0.58
2019-01-30T07:31:40.738Z,0.63
2019-01-30T07:32:42.652Z,0.58
2019-01-30T07:33:40.466Z,0.58
2019-01-30T07:34:40.396Z,0.57
2019-01-30T07:35:40.528Z,0.57
2019-01-30T07:36:40.537Z,0.57
2019-01-30T07:37:42.531Z,0.54
2019-01-30T07:38:41.473Z,0.6
2019-01-30T07:39:40.371Z,0.6
2019-01-30T07:40:42.238Z,0.63
2019-01-30T07:41:40.426Z,0.57
2019-01-30T07:42:40.728Z,0.63
2019-01-30T07:43:40.747Z,0.61
2019-01-30T07:44:51.303Z,0.64
2019-01-30T07:45:40.422Z,0.65
2019-01-30T07:46:40.748Z,0.65
2019-01-30T07:47:40.466Z,0.69
2019-01-30T07:48:40.455Z,0.71
2019-01-30T07:49:40.401Z,0.75
2019-01-30T07:50:40.782Z,0.71
2019-01-30T07:51:40.792Z,0.68
2019-01-30T07:52:40.475Z,0.71
2019-01-30T07:53:40.698Z,0.68
2019-01-30T07:54:40.530Z,0.71
2019-01-30T07:55:40.597Z,0.71
2019-01-30T07:56:40.469Z,0.71
2019-01-30T07:57:40.614Z,0.74
2019-01-30T07:58:40.386Z,0.74
2019-01-30T07:59:40.452Z,0.74
2019-01-30T08:00:40.346Z,0.72
2019-01-30T08:01:42.202Z,0.72
2019-01-30T08:02:53.879Z,0.76
2019-01-30T08:03:40.782Z,0.81
2019-01-30T08:04:40.763Z,0.82
2019-01-30T08:05:40.397Z,0.81
2019-01-30T08:06:41.607Z,0.85
2019-01-30T08:07:40.784Z,0.85
2019-01-30T08:08:40.770Z,0.86
2019-01-30T08:09:41.234Z,0.85
2019-01-30T08:10:40.395Z,0.85
2019-01-30T08:11:40.474Z,0.89
2019-01-30T08:12:40.730Z,0.89
2019-01-30T08:13:40.723Z,0.92
2019-01-30T08:14:40.723Z,0.89
2019-01-30T08:15:40.390Z,0.92
2019-01-30T08:16:40.540Z,0.91
2019-01-30T08:17:40.475Z,0.92
2019-01-30T08:18:40.882Z,0.92
2019-01-30T08:19:40.331Z,0.92
2019-01-30T08:20:40.457Z,0.93
2019-01-30T08:21:40.476Z,0.93
2019-01-30T08:22:42.290Z,0.96
2019-01-30T08:23:40.900Z,0.96
2019-01-30T08:24:41.279Z,0.96
2019-01-30T08:25:40.262Z,0.95
2019-01-30T08:26:40.831Z,0.96
2019-01-30T08:27:41.242Z,1.02
2019-01-30T08:28:41.032Z,1.03
2019-01-30T08:29:40.964Z,1.04
2019-01-30T08:30:40.488Z,1.06
2019-01-30T08:31:40.480Z,1.04
2019-01-30T08:32:41.782Z,1.03
2019-01-30T08:33:40.451Z,1.06
2019-01-30T08:34:40.326Z,1.06
2019-01-30T08:35:40.317Z,1.06
2019-01-30T08:36:40.416Z,1.09
2019-01-30T08:37:40.553Z,1.09
2019-01-30T08:38:40.455Z,1.09
2019-01-30T08:39:40.382Z,1.15
2019-01-30T08:40:40.335Z,1.16
2019-01-30T08:41:40.452Z,1.16
2019-01-30T08:42:40.416Z,1.19
2019-01-30T08:43:40.336Z,1.23
2019-01-30T08:44:47.481Z,1.22
2019-01-30T08:45:40.531Z,1.23
2019-01-30T08:46:40.298Z,1.24
2019-01-30T08:47:40.272Z,1.26
2019-01-30T08:48:40.505Z,1.3
2019-01-30T08:49:40.475Z,1.28
2019-01-30T08:50:40.366Z,1.27
2019-01-30T08:51:40.438Z,1.31
2019-01-30T08:52:41.794Z,1.33
2019-01-30T08:53:40.683Z,1.34
2019-01-30T08:54:40.272Z,1.38
2019-01-30T08:55:40.632Z,1.4
2019-01-30T08:56:53.443Z,1.37
2019-01-30T08:57:40.657Z,1.43
2019-01-30T08:58:40.277Z,1.4
2019-01-30T08:59:40.267Z,1.41
2019-01-30T09:00:40.301Z,1.45
2019-01-30T09:01:40.488Z,1.44
2019-01-30T09:02:40.544Z,1.44
2019-01-30T09:03:40.347Z,1.47
2019-01-30T09:04:40.362Z,1.5
2019-01-30T09:05:40.474Z,1.51
2019-01-30T09:06:40.375Z,1.53
2019-01-30T09:07:44.833Z,1.58
2019-01-30T09:08:40.339Z,1.57
2019-01-30T09:09:40.491Z,1.55
2019-01-30T09:10:40.326Z,1.57
2019-01-30T09:11:40.693Z,1.59
2019-01-30T09:12:40.523Z,1.61
2019-01-30T09:13:40.427Z,1.64
2019-01-30T09:14:40.424Z,1.66
2019-01-30T09:15:40.320Z,1.71
2019-01-30T09:16:40.280Z,1.69
2019-01-30T09:17:40.251Z,1.72
2019-01-30T09:18:40.562Z,1.78
2019-01-30T09:19:40.322Z,1.78
2019-01-30T09:20:40.274Z,1.79
2019-01-30T09:21:40.902Z,1.79
2019-01-30T09:22:40.247Z,1.85
2019-01-30T09:23:43.117Z,1.89
2019-01-30T09:24:40.236Z,1.87
2019-01-30T09:25:42.032Z,1.89
2019-01-30T09:26:40.624Z,1.87
2019-01-30T09:27:40.451Z,1.9
2019-01-30T09:28:40.241Z,1.93
2019-01-30T09:29:40.243Z,1.93
2019-01-30T09:30:40.407Z,1.94
2019-01-30T09:31:40.236Z,1.97
2019-01-30T09:32:40.708Z,1.99
2019-01-30T09:33:40.226Z,1.97
2019-01-30T09:34:40.483Z,2
2019-01-30T09:35:40.464Z,1.99
2019-01-30T09:36:40.492Z,2
2019-01-30T09:37:41.070Z,1.99
2019-01-30T09:38:40.949Z,2
2019-01-30T09:39:40.255Z,2.03
2019-01-30T09:40:40.640Z,2.06
2019-01-30T09:41:40.220Z,2.09
2019-01-30T09:42:40.249Z,2.07
2019-01-30T09:43:40.244Z,2.1
2019-01-30T09:44:40.609Z,2.13
2019-01-30T09:45:40.878Z,2.13
2019-01-30T09:46:40.418Z,2.13
2019-01-30T09:47:40.556Z,2.17
2019-01-30T09:48:40.571Z,2.17
2019-01-30T09:49:40.752Z,2.2
2019-01-30T09:50:40.229Z,2.2
2019-01-30T09:51:40.235Z,2.22
2019-01-30T09:52:41.041Z,2.26
2019-01-30T09:53:40.227Z,2.24
2019-01-30T09:54:40.334Z,2.26
2019-01-30T09:55:40.481Z,2.28
2019-01-30T09:56:40.524Z,2.28
2019-01-30T09:57:40.425Z,2.31
2019-01-30T09:58:40.187Z,2.31
2019-01-30T09:59:40.308Z,2.31
2019-01-30T10:00:40.176Z,2.34
2019-01-30T10:01:40.139Z,2.31
2019-01-30T10:02:40.288Z,2.31
2019-01-30T10:03:40.472Z,2.36
2019-01-30T10:04:40.333Z,2.37
2019-01-30T10:05:40.168Z,2.38
2019-01-30T10:06:40.353Z,2.4
2019-01-30T10:07:40.791Z,2.43
2019-01-30T10:08:40.249Z,2.41
2019-01-30T10:09:40.131Z,2.47
2019-01-30T10:10:40.452Z,2.54
2019-01-30T10:11:40.430Z,2.55
2019-01-30T10:12:40.294Z,2.61
2019-01-30T10:13:40.618Z,2.61
2019-01-30T10:14:41.038Z,2.62
2019-01-30T10:15:40.168Z,2.61
2019-01-30T10:16:40.371Z,2.65
2019-01-30T10:17:40.465Z,2.66
2019-01-30T10:18:40.216Z,2.71
2019-01-30T10:19:42.013Z,2.71
2019-01-30T10:20:40.202Z,2.71
2019-01-30T10:21:40.215Z,2.73
2019-01-30T10:22:40.199Z,2.75
2019-01-30T10:23:40.318Z,2.76
2019-01-30T10:25:40.323Z,2.8
2019-01-30T10:26:40.188Z,2.82
2019-01-30T10:27:40.245Z,2.83
2019-01-30T10:28:40.206Z,2.82
2019-01-30T10:29:40.521Z,2.84
2019-01-30T10:30:40.354Z,2.89
2019-01-30T10:31:40.220Z,2.97
2019-01-30T10:32:40.311Z,3.03
2019-01-30T10:33:47.012Z,3.01
2019-01-30T10:34:40.287Z,3.08
2019-01-30T10:35:40.184Z,3.1
2019-01-30T10:36:40.846Z,3.07
2019-01-30T10:37:40.817Z,3.07
2019-01-30T10:38:40.160Z,3.06
2019-01-30T10:39:40.108Z,3.07
2019-01-30T10:40:41.107Z,3.1
2019-01-30T10:41:41.034Z,3.12
2019-01-30T10:42:40.467Z,3.15
2019-01-30T10:43:40.152Z,3.2
2019-01-30T10:44:40.149Z,3.17
2019-01-30T10:45:40.658Z,3.2
2019-01-30T10:46:40.303Z,3.2
2019-01-30T10:47:40.634Z,3.17
2019-01-30T10:48:40.176Z,3.2
2019-01-30T10:49:40.563Z,3.22
2019-01-30T10:50:40.222Z,3.27
2019-01-30T10:51:40.199Z,3.24
2019-01-30T10:52:40.373Z,3.22
2019-01-30T10:53:40.314Z,3.24
2019-01-30T10:54:40.080Z,3.24
2019-01-30T10:55:40.101Z,3.24
2019-01-30T10:56:40.154Z,3.25
2019-01-30T10:57:40.091Z,3.27
2019-01-30T10:58:40.131Z,3.32
2019-01-30T10:59:40.101Z,3.34
2019-01-30T11:00:40.121Z,3.34
2019-01-30T11:01:40.205Z,3.32
2019-01-30T11:02:40.163Z,3.34
2019-01-30T11:03:40.022Z,3.34
2019-01-30T11:04:40.116Z,3.37
2019-01-30T11:05:40.089Z,3.37
2019-01-30T11:06:40.126Z,3.37
2019-01-30T11:07:40.033Z,3.37
2019-01-30T11:08:40.340Z,3.37
2019-01-30T11:09:40.080Z,3.38
2019-01-30T11:10:40.104Z,3.44
2019-01-30T11:11:40.136Z,3.45
2019-01-30T11:12:40.108Z,3.44
2019-01-30T11:13:40.838Z,3.41
2019-01-30T11:14:41.246Z,3.45
2019-01-30T11:15:40.222Z,3.45
2019-01-30T11:16:40.437Z,3.48
2019-01-30T11:17:40.334Z,3.52
2019-01-30T11:18:40.474Z,3.54
2019-01-30T11:19:40.122Z,3.62
2019-01-30T11:20:40.076Z,3.65
2019-01-30T11:21:40.573Z,3.67
2019-01-30T11:22:40.221Z,3.65
2019-01-30T11:23:40.297Z,3.66
2019-01-30T11:24:40.192Z,3.65
2019-01-30T11:25:40.131Z,3.67
2019-01-30T11:26:40.487Z,3.76
2019-01-30T11:27:40.102Z,3.72
2019-01-30T11:28:40.204Z,3.73
2019-01-30T11:29:40.151Z,3.74
2019-01-30T11:30:40.948Z,3.73
2019-01-30T11:31:41.337Z,3.74
2019-01-30T11:32:40.082Z,3.77
2019-01-30T11:33:40.834Z,3.79
2019-01-30T11:34:40.105Z,3.83
2019-01-30T11:35:40.122Z,3.83
2019-01-30T11:36:40.791Z,3.84
2019-01-30T11:37:40.995Z,3.87
2019-01-30T11:38:40.283Z,3.89
2019-01-30T11:39:41.034Z,3.91
2019-01-30T11:40:40.525Z,3.97
2019-01-30T11:41:41.256Z,4.02
2019-01-30T11:42:40.061Z,4.04
2019-01-30T11:43:41.161Z,4.04
2019-01-30T11:44:40.156Z,4.02
2019-01-30T11:45:40.360Z,4.02
2019-01-30T11:46:40.339Z,4.07
2019-01-30T11:47:40.095Z,4.05
2019-01-30T11:48:40.356Z,4.04
2019-01-30T11:49:40.252Z,4.04
2019-01-30T11:50:40.283Z,4.02
2019-01-30T11:51:40.012Z,4
2019-01-30T11:52:40.895Z,4.01
2019-01-30T11:53:40.288Z,4.01
2019-01-30T11:54:40.807Z,3.98
2019-01-30T11:55:40.494Z,4
2019-01-30T11:56:41.239Z,4.01
2019-01-30T11:57:40.058Z,4
2019-01-30T11:58:40.111Z,4
2019-01-30T11:59:40.327Z,4.02
2019-01-30T12:00:40.268Z,4.01
2019-01-30T12:01:40.657Z,4.01
2019-01-30T12:02:48.458Z,3.98
2019-01-30T12:03:40.027Z,4
2019-01-30T12:04:40.346Z,3.97
2019-01-30T12:05:40.427Z,3.96
2019-01-30T12:06:40.179Z,3.97
2019-01-30T12:07:40.281Z,3.96
2019-01-30T12:08:40.175Z,3.96
2019-01-30T12:09:40.289Z,3.97
2019-01-30T12:10:40.045Z,3.94
2019-01-30T12:11:39.977Z,3.94
2019-01-30T12:12:40.316Z,3.96
2019-01-30T12:13:40.322Z,3.97
2019-01-30T12:14:40.018Z,3.93
2019-01-30T12:15:40.124Z,3.96
2019-01-30T12:16:40.347Z,3.97
2019-01-30T12:17:40.234Z,3.96
2019-01-30T12:18:40.366Z,3.94
2019-01-30T12:19:40.111Z,3.94
2019-01-30T12:20:40.131Z,3.9
2019-01-30T12:21:40.130Z,3.9
2019-01-30T12:22:40.072Z,3.89
2019-01-30T12:23:40.063Z,3.91
2019-01-30T12:24:40.210Z,3.9
2019-01-30T12:25:40.146Z,3.93
2019-01-30T12:26:40.192Z,3.91
2019-01-30T12:27:40.201Z,3.91
2019-01-30T12:28:40.038Z,3.89
2019-01-30T12:29:40.382Z,3.86
2019-01-30T12:30:39.991Z,3.86
2019-01-30T12:31:40.341Z,3.86
2019-01-30T12:32:39.991Z,3.84
2019-01-30T12:33:40.383Z,3.84
2019-01-30T12:34:40.044Z,3.82
2019-01-30T12:35:40.329Z,3.86
2019-01-30T12:36:39.986Z,3.84
2019-01-30T12:37:40.423Z,3.84
2019-01-30T12:38:39.976Z,3.82
2019-01-30T12:39:40.073Z,3.77
2019-01-30T12:40:39.986Z,3.79
2019-01-30T12:41:40.880Z,3.79
2019-01-30T12:42:40.046Z,3.79
2019-01-30T12:43:40.319Z,3.76
2019-01-30T12:44:39.939Z,3.74
2019-01-30T12:45:40.233Z,3.74
2019-01-30T12:46:39.963Z,3.74
2019-01-30T12:47:40.172Z,3.7
2019-01-30T12:48:40.265Z,3.7
2019-01-30T12:49:40.156Z,3.7
2019-01-30T12:50:40.156Z,3.72
2019-01-30T12:51:40.106Z,3.69
2019-01-30T12:52:40.482Z,3.7
2019-01-30T12:53:40.012Z,3.69
2019-01-30T12:54:40.187Z,3.69
2019-01-30T12:55:39.880Z,3.69
2019-01-30T12:56:39.985Z,3.69
2019-01-30T12:57:40.414Z,3.66
2019-01-30T12:58:39.939Z,3.66
2019-01-30T12:59:41.297Z,3.63
2019-01-30T13:00:40.440Z,3.61
2019-01-30T13:01:39.996Z,3.58
2019-01-30T13:02:39.986Z,3.55
2019-01-30T13:03:40.011Z,3.54
2019-01-30T13:04:40.163Z,3.51
2019-01-30T13:05:40.171Z,3.51
2019-01-30T13:06:40.157Z,3.51
2019-01-30T13:07:39.950Z,3.49
2019-01-30T13:08:39.920Z,3.42
2019-01-30T13:09:39.986Z,3.41
2019-01-30T13:10:40.318Z,3.39
2019-01-30T13:11:41.712Z,3.39
2019-01-30T13:12:39.946Z,3.39
2019-01-30T13:13:39.941Z,3.37
2019-01-30T13:14:40.249Z,3.39
2019-01-30T13:15:41.716Z,3.42
2019-01-30T13:16:39.864Z,3.38
2019-01-30T13:17:39.892Z,3.37
2019-01-30T13:18:40.039Z,3.38
2019-01-30T13:19:40.148Z,3.37
2019-01-30T13:20:40.019Z,3.35
2019-01-30T13:21:40.280Z,3.34
2019-01-30T13:22:40.072Z,3.29
2019-01-30T13:23:39.825Z,3.29